sensor_id;sensor_type;location;lat;lon;timestamp;P1;durP1;ratioP1;P2;durP2;ratioP2
60488;SDS011;46331;49.252;8.904;2023-05-18T00:00:37;7.80;;;2.03;;
60488;SDS011;46331;49.252;8.904;2023-05-18T00:01:18;8.20;;;2.40;;
60488;SDS011;46331;49.252;8.904;2023-05-18T00:01:59;8.17;;;2.17;;
60488;SDS011;46331;49.252;8.904;2023-05-18T00:02:40;9.47;;;2.30;;
60488;SDS011;46331;49.252;8.904;2023-05-18T00:03:21;7.88;;;2.30;;
60488;SDS011;46331;49.252;8.904;2023-05-18T00:04:01;8.60;;;2.20;;
60488;SDS011;46331;49.252;8.904;2023-05-18T00:04:43;7.80;;;2.17;;
60488;SDS011;46331;49.252;8.904;2023-05-18T00:05:23;11.90;;;2.60;;
60488;SDS011;46331;49.252;8.904;2023-05-18T00:06:04;9.70;;;2.57;;
60488;SDS011;46331;49.252;8.904;2023-05-18T00:06:46;7.72;;;2.60;;
60488;SDS011;46331;49.252;8.904;2023-05-18T00:07:27;9.63;;;2.42;;
60488;SDS011;46331;49.252;8.904;2023-05-18T00:08:09;8.35;;;2.53;;
60488;SDS011;46331;49.252;8.904;2023-05-18T00:08:49;9.87;;;2.60;;
60488;SDS011;46331;49.252;8.904;2023-05-18T00:09:31;6.63;;;2.08;;
60488;SDS011;46331;49.252;8.904;2023-05-18T00:10:13;10.15;;;2.38;;
60488;SDS011;46331;49.252;8.904;2023-05-18T00:10:53;6.27;;;1.80;;
60488;SDS011;46331;49.252;8.904;2023-05-18T00:11:34;7.55;;;2.28;;
60488;SDS011;46331;49.252;8.904;2023-05-18T00:12:18;6.65;;;1.80;;
60488;SDS011;46331;49.252;8.904;2023-05-18T00:12:59;5.70;;;1.90;;
60488;SDS011;46331;49.252;8.904;2023-05-18T00:13:39;7.72;;;1.65;;
60488;SDS011;46331;49.252;8.904;2023-05-18T00:14:20;7.60;;;2.03;;
60488;SDS011;46331;49.252;8.904;2023-05-18T00:15:01;7.90;;;2.20;;
60488;SDS011;46331;49.252;8.904;2023-05-18T00:15:43;9.43;;;2.10;;
60488;SDS011;46331;49.252;8.904;2023-05-18T00:16:24;8.67;;;2.60;;
60488;SDS011;46331;49.252;8.904;2023-05-18T00:17:04;9.73;;;2.57;;
60488;SDS011;46331;49.252;8.904;2023-05-18T00:17:45;8.27;;;2.58;;
60488;SDS011;46331;49.252;8.904;2023-05-18T00:18:25;9.80;;;2.97;;
60488;SDS011;46331;49.252;8.904;2023-05-18T00:19:07;8.30;;;2.83;;
60488;SDS011;46331;49.252;8.904;2023-05-18T00:19:47;8.90;;;2.70;;
60488;SDS011;46331;49.252;8.904;2023-05-18T00:20:29;8.32;;;2.30;;
60488;SDS011;46331;49.252;8.904;2023-05-18T00:21:09;10.27;;;2.77;;
60488;SDS011;46331;49.252;8.904;2023-05-18T00:21:50;7.13;;;2.20;;
60488;SDS011;46331;49.252;8.904;2023-05-18T00:22:31;11.83;;;2.20;;
60488;SDS011;46331;49.252;8.904;2023-05-18T00:23:12;8.57;;;2.65;;
60488;SDS011;46331;49.252;8.904;2023-05-18T00:23:55;10.93;;;2.40;;
60488;SDS011;46331;49.252;8.904;2023-05-18T00:24:35;8.97;;;2.10;;
60488;SDS011;46331;49.252;8.904;2023-05-18T00:25:16;8.00;;;2.20;;
60488;SDS011;46331;49.252;8.904;2023-05-18T00:25:57;8.70;;;1.97;;
60488;SDS011;46331;49.252;8.904;2023-05-18T00:26:39;11.52;;;2.55;;
60488;SDS011;46331;49.252;8.904;2023-05-18T00:27:20;8.45;;;2.80;;
60488;SDS011;46331;49.252;8.904;2023-05-18T00:28:03;11.23;;;2.65;;
60488;SDS011;46331;49.252;8.904;2023-05-18T00:28:44;11.23;;;2.97;;
60488;SDS011;46331;49.252;8.904;2023-05-18T00:29:25;11.02;;;2.38;;
60488;SDS011;46331;49.252;8.904;2023-05-18T00:30:05;11.23;;;2.70;;
60488;SDS011;46331;49.252;8.904;2023-05-18T00:30:49;9.40;;;2.30;;
60488;SDS011;46331;49.252;8.904;2023-05-18T00:31:30;9.32;;;2.33;;
60488;SDS011;46331;49.252;8.904;2023-05-18T00:32:15;10.43;;;2.60;;
60488;SDS011;46331;49.252;8.904;2023-05-18T00:32:55;9.65;;;2.58;;
60488;SDS011;46331;49.252;8.904;2023-05-18T00:33:36;7.27;;;2.30;;
60488;SDS011;46331;49.252;8.904;2023-05-18T00:34:16;9.27;;;2.92;;
60488;SDS011;46331;49.252;8.904;2023-05-18T00:34:57;10.60;;;2.60;;
60488;SDS011;46331;49.252;8.904;2023-05-18T00:35:37;9.15;;;2.20;;
60488;SDS011;46331;49.252;8.904;2023-05-18T00:36:18;7.00;;;1.97;;
60488;SDS011;46331;49.252;8.904;2023-05-18T00:36:59;9.80;;;2.20;;
60488;SDS011;46331;49.252;8.904;2023-05-18T00:37:39;9.37;;;2.80;;
60488;SDS011;46331;49.252;8.904;2023-05-18T00:38:22;8.90;;;2.47;;
60488;SDS011;46331;49.252;8.904;2023-05-18T00:39:06;7.75;;;1.90;;
60488;SDS011;46331;49.252;8.904;2023-05-18T00:39:48;8.20;;;2.00;;
60488;SDS011;46331;49.252;8.904;2023-05-18T00:40:29;10.43;;;2.20;;
60488;SDS011;46331;49.252;8.904;2023-05-18T00:41:09;6.45;;;1.90;;
60488;SDS011;46331;49.252;8.904;2023-05-18T00:41:50;8.75;;;1.92;;
60488;SDS011;46331;49.252;8.904;2023-05-18T00:42:31;9.13;;;1.80;;
60488;SDS011;46331;49.252;8.904;2023-05-18T00:43:11;8.13;;;2.37;;
60488;SDS011;46331;49.252;8.904;2023-05-18T00:43:52;6.35;;;1.70;;
60488;SDS011;46331;49.252;8.904;2023-05-18T00:44:33;10.55;;;2.45;;
60488;SDS011;46331;49.252;8.904;2023-05-18T00:45:14;6.53;;;1.67;;
60488;SDS011;46331;49.252;8.904;2023-05-18T00:45:55;6.70;;;1.85;;
60488;SDS011;46331;49.252;8.904;2023-05-18T00:46:36;4.93;;;1.27;;
60488;SDS011;46331;49.252;8.904;2023-05-18T00:47:16;10.73;;;1.80;;
60488;SDS011;46331;49.252;8.904;2023-05-18T00:48:00;6.13;;;1.48;;
60488;SDS011;46331;49.252;8.904;2023-05-18T00:48:41;9.80;;;1.70;;
60488;SDS011;46331;49.252;8.904;2023-05-18T00:49:23;7.60;;;1.70;;
60488;SDS011;46331;49.252;8.904;2023-05-18T00:50:03;5.80;;;1.50;;
60488;SDS011;46331;49.252;8.904;2023-05-18T00:50:45;8.68;;;1.85;;
60488;SDS011;46331;49.252;8.904;2023-05-18T00:51:26;5.43;;;1.30;;
60488;SDS011;46331;49.252;8.904;2023-05-18T00:52:08;8.55;;;1.70;;
60488;SDS011;46331;49.252;8.904;2023-05-18T00:52:49;5.27;;;1.40;;
60488;SDS011;46331;49.252;8.904;2023-05-18T00:53:33;5.53;;;1.50;;
60488;SDS011;46331;49.252;8.904;2023-05-18T00:54:15;6.60;;;1.20;;
60488;SDS011;46331;49.252;8.904;2023-05-18T00:54:56;6.32;;;1.48;;
60488;SDS011;46331;49.252;8.904;2023-05-18T00:55:37;6.57;;;1.20;;
60488;SDS011;46331;49.252;8.904;2023-05-18T00:56:18;4.97;;;1.40;;
60488;SDS011;46331;49.252;8.904;2023-05-18T00:56:59;6.97;;;1.48;;
60488;SDS011;46331;49.252;8.904;2023-05-18T00:57:42;6.80;;;1.42;;
60488;SDS011;46331;49.252;8.904;2023-05-18T00:58:24;7.47;;;1.42;;
60488;SDS011;46331;49.252;8.904;2023-05-18T00:59:06;6.85;;;1.25;;
60488;SDS011;46331;49.252;8.904;2023-05-18T00:59:48;8.43;;;1.27;;
60488;SDS011;46331;49.252;8.904;2023-05-18T01:00:28;8.43;;;1.30;;
60488;SDS011;46331;49.252;8.904;2023-05-18T01:01:10;7.80;;;1.45;;
60488;SDS011;46331;49.252;8.904;2023-05-18T01:01:50;7.72;;;1.60;;
60488;SDS011;46331;49.252;8.904;2023-05-18T01:02:31;7.97;;;1.50;;
60488;SDS011;46331;49.252;8.904;2023-05-18T01:03:11;6.30;;;1.30;;
60488;SDS011;46331;49.252;8.904;2023-05-18T01:03:57;5.67;;;1.20;;
60488;SDS011;46331;49.252;8.904;2023-05-18T01:04:41;5.18;;;1.10;;
60488;SDS011;46331;49.252;8.904;2023-05-18T01:05:22;6.60;;;1.42;;
60488;SDS011;46331;49.252;8.904;2023-05-18T01:06:03;6.27;;;1.20;;
60488;SDS011;46331;49.252;8.904;2023-05-18T01:06:44;9.17;;;1.20;;
60488;SDS011;46331;49.252;8.904;2023-05-18T01:07:25;7.18;;;1.50;;
60488;SDS011;46331;49.252;8.904;2023-05-18T01:08:06;6.63;;;1.27;;
60488;SDS011;46331;49.252;8.904;2023-05-18T01:08:47;10.93;;;1.58;;
60488;SDS011;46331;49.252;8.904;2023-05-18T01:09:28;6.60;;;1.30;;
60488;SDS011;46331;49.252;8.904;2023-05-18T01:10:09;9.57;;;1.85;;
60488;SDS011;46331;49.252;8.904;2023-05-18T01:10:53;9.90;;;1.52;;
60488;SDS011;46331;49.252;8.904;2023-05-18T01:13:53;4.75;;;1.40;;
60488;SDS011;46331;49.252;8.904;2023-05-18T01:15:47;9.25;;;1.40;;
60488;SDS011;46331;49.252;8.904;2023-05-18T01:17:21;7.07;;;1.20;;
60488;SDS011;46331;49.252;8.904;2023-05-18T01:20:26;5.82;;;1.20;;
60488;SDS011;46331;49.252;8.904;2023-05-18T01:24:57;7.28;;;1.30;;
60488;SDS011;46331;49.252;8.904;2023-05-18T01:25:46;8.05;;;1.42;;
60488;SDS011;46331;49.252;8.904;2023-05-18T01:26:35;7.10;;;1.20;;
60488;SDS011;46331;49.252;8.904;2023-05-18T01:27:20;8.88;;;1.45;;
60488;SDS011;46331;49.252;8.904;2023-05-18T01:28:06;5.63;;;1.23;;
60488;SDS011;46331;49.252;8.904;2023-05-18T01:28:52;7.53;;;1.42;;
60488;SDS011;46331;49.252;8.904;2023-05-18T01:29:35;5.28;;;1.30;;
60488;SDS011;46331;49.252;8.904;2023-05-18T01:30:17;7.67;;;1.20;;
60488;SDS011;46331;49.252;8.904;2023-05-18T01:30:58;11.10;;;1.58;;
60488;SDS011;46331;49.252;8.904;2023-05-18T01:31:39;7.63;;;1.23;;
60488;SDS011;46331;49.252;8.904;2023-05-18T01:32:20;6.88;;;1.10;;
60488;SDS011;46331;49.252;8.904;2023-05-18T01:33:05;7.85;;;1.50;;
60488;SDS011;46331;49.252;8.904;2023-05-18T01:33:47;7.78;;;1.20;;
60488;SDS011;46331;49.252;8.904;2023-05-18T01:34:28;8.23;;;1.60;;
60488;SDS011;46331;49.252;8.904;2023-05-18T01:35:08;5.87;;;1.33;;
60488;SDS011;46331;49.252;8.904;2023-05-18T01:35:49;8.00;;;1.45;;
60488;SDS011;46331;49.252;8.904;2023-05-18T01:36:31;6.75;;;1.50;;
60488;SDS011;46331;49.252;8.904;2023-05-18T01:37:12;6.47;;;1.13;;
60488;SDS011;46331;49.252;8.904;2023-05-18T01:37:53;8.90;;;1.33;;
60488;SDS011;46331;49.252;8.904;2023-05-18T01:38:33;7.57;;;1.20;;
60488;SDS011;46331;49.252;8.904;2023-05-18T01:39:14;8.40;;;1.58;;
60488;SDS011;46331;49.252;8.904;2023-05-18T01:39:55;8.05;;;1.13;;
60488;SDS011;46331;49.252;8.904;2023-05-18T01:40:39;7.63;;;1.85;;
60488;SDS011;46331;49.252;8.904;2023-05-18T01:41:50;9.32;;;2.08;;
60488;SDS011;46331;49.252;8.904;2023-05-18T01:42:36;7.28;;;1.20;;
60488;SDS011;46331;49.252;8.904;2023-05-18T01:43:26;5.43;;;0.87;;
60488;SDS011;46331;49.252;8.904;2023-05-18T01:44:12;9.68;;;1.70;;
60488;SDS011;46331;49.252;8.904;2023-05-18T01:45:02;8.80;;;1.52;;
60488;SDS011;46331;49.252;8.904;2023-05-18T01:45:48;7.70;;;1.83;;
60488;SDS011;46331;49.252;8.904;2023-05-18T01:46:35;7.30;;;1.30;;
60488;SDS011;46331;49.252;8.904;2023-05-18T01:47:27;5.88;;;1.40;;
60488;SDS011;46331;49.252;8.904;2023-05-18T01:48:10;8.63;;;1.55;;
60488;SDS011;46331;49.252;8.904;2023-05-18T01:48:55;5.70;;;1.23;;
60488;SDS011;46331;49.252;8.904;2023-05-18T01:50:44;6.57;;;1.23;;
60488;SDS011;46331;49.252;8.904;2023-05-18T01:51:29;6.60;;;1.30;;
60488;SDS011;46331;49.252;8.904;2023-05-18T01:52:23;8.65;;;1.40;;
60488;SDS011;46331;49.252;8.904;2023-05-18T01:53:27;5.80;;;1.23;;
60488;SDS011;46331;49.252;8.904;2023-05-18T01:54:18;7.38;;;1.90;;
60488;SDS011;46331;49.252;8.904;2023-05-18T01:55:01;8.23;;;1.45;;
60488;SDS011;46331;49.252;8.904;2023-05-18T01:55:43;5.95;;;1.20;;
60488;SDS011;46331;49.252;8.904;2023-05-18T01:56:27;7.75;;;1.02;;
60488;SDS011;46331;49.252;8.904;2023-05-18T01:57:11;8.68;;;1.55;;
60488;SDS011;46331;49.252;8.904;2023-05-18T01:57:52;6.13;;;1.40;;
60488;SDS011;46331;49.252;8.904;2023-05-18T01:58:35;7.60;;;1.63;;
60488;SDS011;46331;49.252;8.904;2023-05-18T01:59:17;9.60;;;1.63;;
60488;SDS011;46331;49.252;8.904;2023-05-18T01:59:58;7.40;;;1.40;;
60488;SDS011;46331;49.252;8.904;2023-05-18T02:00:39;8.70;;;1.70;;
60488;SDS011;46331;49.252;8.904;2023-05-18T02:01:20;10.60;;;1.40;;
60488;SDS011;46331;49.252;8.904;2023-05-18T02:02:02;10.35;;;1.30;;
60488;SDS011;46331;49.252;8.904;2023-05-18T02:02:43;7.47;;;1.40;;
60488;SDS011;46331;49.252;8.904;2023-05-18T02:03:25;5.93;;;1.23;;
60488;SDS011;46331;49.252;8.904;2023-05-18T02:04:07;7.20;;;1.42;;
60488;SDS011;46331;49.252;8.904;2023-05-18T02:04:49;7.07;;;1.50;;
60488;SDS011;46331;49.252;8.904;2023-05-18T02:05:29;8.00;;;1.70;;
60488;SDS011;46331;49.252;8.904;2023-05-18T02:06:10;5.88;;;1.27;;
60488;SDS011;46331;49.252;8.904;2023-05-18T02:06:51;7.72;;;1.23;;
60488;SDS011;46331;49.252;8.904;2023-05-18T02:07:33;6.30;;;1.17;;
60488;SDS011;46331;49.252;8.904;2023-05-18T02:08:13;7.83;;;1.50;;
60488;SDS011;46331;49.252;8.904;2023-05-18T02:08:55;6.10;;;1.30;;
60488;SDS011;46331;49.252;8.904;2023-05-18T02:09:36;10.30;;;1.43;;
60488;SDS011;46331;49.252;8.904;2023-05-18T02:10:16;7.68;;;1.52;;
60488;SDS011;46331;49.252;8.904;2023-05-18T02:10:57;5.63;;;1.25;;
60488;SDS011;46331;49.252;8.904;2023-05-18T02:11:38;6.10;;;1.40;;
60488;SDS011;46331;49.252;8.904;2023-05-18T02:12:19;10.27;;;1.40;;
60488;SDS011;46331;49.252;8.904;2023-05-18T02:12:59;5.97;;;1.20;;
60488;SDS011;46331;49.252;8.904;2023-05-18T02:13:41;9.20;;;1.27;;
60488;SDS011;46331;49.252;8.904;2023-05-18T02:14:22;7.28;;;1.75;;
60488;SDS011;46331;49.252;8.904;2023-05-18T02:15:02;6.80;;;1.43;;
60488;SDS011;46331;49.252;8.904;2023-05-18T02:15:45;5.75;;;1.58;;
60488;SDS011;46331;49.252;8.904;2023-05-18T02:16:26;6.72;;;1.40;;
60488;SDS011;46331;49.252;8.904;2023-05-18T02:17:06;7.27;;;1.50;;
60488;SDS011;46331;49.252;8.904;2023-05-18T02:17:47;4.13;;;1.08;;
60488;SDS011;46331;49.252;8.904;2023-05-18T02:18:28;8.17;;;1.60;;
60488;SDS011;46331;49.252;8.904;2023-05-18T02:19:09;6.43;;;1.35;;
60488;SDS011;46331;49.252;8.904;2023-05-18T02:19:49;8.57;;;1.70;;
60488;SDS011;46331;49.252;8.904;2023-05-18T02:20:30;8.03;;;1.17;;
60488;SDS011;46331;49.252;8.904;2023-05-18T02:21:12;8.82;;;1.35;;
60488;SDS011;46331;49.252;8.904;2023-05-18T02:21:53;5.55;;;1.42;;
60488;SDS011;46331;49.252;8.904;2023-05-18T02:22:34;6.73;;;1.40;;
60488;SDS011;46331;49.252;8.904;2023-05-18T02:23:15;4.97;;;1.10;;
60488;SDS011;46331;49.252;8.904;2023-05-18T02:23:58;6.35;;;1.33;;
60488;SDS011;46331;49.252;8.904;2023-05-18T02:24:38;7.37;;;1.10;;
60488;SDS011;46331;49.252;8.904;2023-05-18T02:25:19;9.43;;;1.50;;
60488;SDS011;46331;49.252;8.904;2023-05-18T02:26:00;5.97;;;1.35;;
60488;SDS011;46331;49.252;8.904;2023-05-18T02:26:40;9.80;;;1.57;;
60488;SDS011;46331;49.252;8.904;2023-05-18T02:27:21;5.40;;;1.23;;
60488;SDS011;46331;49.252;8.904;2023-05-18T02:28:02;10.68;;;1.58;;
60488;SDS011;46331;49.252;8.904;2023-05-18T02:28:42;4.95;;;1.20;;
60488;SDS011;46331;49.252;8.904;2023-05-18T02:29:23;7.30;;;1.60;;
60488;SDS011;46331;49.252;8.904;2023-05-18T02:30:04;9.27;;;1.95;;
60488;SDS011;46331;49.252;8.904;2023-05-18T02:30:47;9.18;;;1.55;;
60488;SDS011;46331;49.252;8.904;2023-05-18T02:31:29;8.23;;;1.35;;
60488;SDS011;46331;49.252;8.904;2023-05-18T02:32:10;8.40;;;1.40;;
60488;SDS011;46331;49.252;8.904;2023-05-18T02:32:50;6.13;;;1.20;;
60488;SDS011;46331;49.252;8.904;2023-05-18T02:33:31;7.13;;;1.50;;
60488;SDS011;46331;49.252;8.904;2023-05-18T02:34:19;7.65;;;1.55;;
60488;SDS011;46331;49.252;8.904;2023-05-18T02:35:01;8.60;;;1.23;;
60488;SDS011;46331;49.252;8.904;2023-05-18T02:35:42;7.63;;;1.40;;
60488;SDS011;46331;49.252;8.904;2023-05-18T02:36:23;6.50;;;1.10;;
60488;SDS011;46331;49.252;8.904;2023-05-18T02:37:03;8.23;;;1.20;;
60488;SDS011;46331;49.252;8.904;2023-05-18T02:37:44;5.77;;;1.00;;
60488;SDS011;46331;49.252;8.904;2023-05-18T02:38:25;5.55;;;1.20;;
60488;SDS011;46331;49.252;8.904;2023-05-18T02:39:05;6.83;;;1.70;;
60488;SDS011;46331;49.252;8.904;2023-05-18T02:39:46;6.53;;;1.05;;
60488;SDS011;46331;49.252;8.904;2023-05-18T02:40:27;5.65;;;1.20;;
60488;SDS011;46331;49.252;8.904;2023-05-18T02:41:08;6.33;;;1.50;;
60488;SDS011;46331;49.252;8.904;2023-05-18T02:41:49;8.70;;;1.42;;
60488;SDS011;46331;49.252;8.904;2023-05-18T02:42:30;8.13;;;1.60;;
60488;SDS011;46331;49.252;8.904;2023-05-18T02:43:11;9.75;;;1.85;;
60488;SDS011;46331;49.252;8.904;2023-05-18T02:43:52;6.97;;;1.20;;
60488;SDS011;46331;49.252;8.904;2023-05-18T02:44:33;7.63;;;1.40;;
60488;SDS011;46331;49.252;8.904;2023-05-18T02:45:13;5.20;;;1.20;;
60488;SDS011;46331;49.252;8.904;2023-05-18T02:45:55;6.95;;;1.10;;
60488;SDS011;46331;49.252;8.904;2023-05-18T02:46:36;6.38;;;1.40;;
60488;SDS011;46331;49.252;8.904;2023-05-18T02:47:19;7.13;;;1.27;;
60488;SDS011;46331;49.252;8.904;2023-05-18T02:47:59;9.13;;;1.50;;
60488;SDS011;46331;49.252;8.904;2023-05-18T02:48:40;9.97;;;1.47;;
60488;SDS011;46331;49.252;8.904;2023-05-18T02:49:25;9.93;;;1.48;;
60488;SDS011;46331;49.252;8.904;2023-05-18T02:50:05;9.52;;;1.40;;
60488;SDS011;46331;49.252;8.904;2023-05-18T02:50:47;10.38;;;1.35;;
60488;SDS011;46331;49.252;8.904;2023-05-18T02:51:29;7.00;;;1.17;;
60488;SDS011;46331;49.252;8.904;2023-05-18T02:52:10;4.90;;;1.03;;
60488;SDS011;46331;49.252;8.904;2023-05-18T02:52:51;6.82;;;1.30;;
60488;SDS011;46331;49.252;8.904;2023-05-18T02:53:32;6.80;;;1.10;;
60488;SDS011;46331;49.252;8.904;2023-05-18T02:54:18;6.75;;;1.40;;
60488;SDS011;46331;49.252;8.904;2023-05-18T02:54:58;7.70;;;1.10;;
60488;SDS011;46331;49.252;8.904;2023-05-18T02:55:58;6.97;;;1.15;;
60488;SDS011;46331;49.252;8.904;2023-05-18T02:56:47;7.55;;;1.30;;
60488;SDS011;46331;49.252;8.904;2023-05-18T02:57:46;9.65;;;1.40;;
60488;SDS011;46331;49.252;8.904;2023-05-18T02:58:28;6.13;;;1.10;;
60488;SDS011;46331;49.252;8.904;2023-05-18T02:59:29;7.40;;;1.40;;
60488;SDS011;46331;49.252;8.904;2023-05-18T03:00:10;8.65;;;1.50;;
60488;SDS011;46331;49.252;8.904;2023-05-18T03:00:52;6.00;;;1.10;;
60488;SDS011;46331;49.252;8.904;2023-05-18T03:01:34;5.85;;;1.52;;
60488;SDS011;46331;49.252;8.904;2023-05-18T03:02:16;6.25;;;1.30;;
60488;SDS011;46331;49.252;8.904;2023-05-18T03:02:57;6.60;;;1.13;;
60488;SDS011;46331;49.252;8.904;2023-05-18T03:03:39;6.18;;;1.30;;
60488;SDS011;46331;49.252;8.904;2023-05-18T03:04:21;7.40;;;1.40;;
60488;SDS011;46331;49.252;8.904;2023-05-18T03:05:07;5.50;;;1.00;;
60488;SDS011;46331;49.252;8.904;2023-05-18T03:05:48;6.72;;;1.58;;
60488;SDS011;46331;49.252;8.904;2023-05-18T03:06:32;9.23;;;1.45;;
60488;SDS011;46331;49.252;8.904;2023-05-18T03:07:12;6.93;;;1.63;;
60488;SDS011;46331;49.252;8.904;2023-05-18T03:07:53;7.82;;;1.65;;
60488;SDS011;46331;49.252;8.904;2023-05-18T03:08:35;8.70;;;1.35;;
60488;SDS011;46331;49.252;8.904;2023-05-18T03:09:22;7.97;;;1.58;;
60488;SDS011;46331;49.252;8.904;2023-05-18T03:10:05;5.97;;;1.20;;
60488;SDS011;46331;49.252;8.904;2023-05-18T03:10:47;6.28;;;1.20;;
60488;SDS011;46331;49.252;8.904;2023-05-18T03:11:29;6.20;;;1.10;;
60488;SDS011;46331;49.252;8.904;2023-05-18T03:12:10;6.22;;;1.30;;
60488;SDS011;46331;49.252;8.904;2023-05-18T03:12:50;7.13;;;1.33;;
60488;SDS011;46331;49.252;8.904;2023-05-18T03:13:31;8.90;;;1.80;;
60488;SDS011;46331;49.252;8.904;2023-05-18T03:14:12;6.88;;;1.40;;
60488;SDS011;46331;49.252;8.904;2023-05-18T03:14:53;8.95;;;1.50;;
60488;SDS011;46331;49.252;8.904;2023-05-18T03:15:33;6.73;;;1.43;;
60488;SDS011;46331;49.252;8.904;2023-05-18T03:16:14;6.75;;;1.52;;
60488;SDS011;46331;49.252;8.904;2023-05-18T03:16:54;7.20;;;1.30;;
60488;SDS011;46331;49.252;8.904;2023-05-18T03:17:37;8.48;;;1.65;;
60488;SDS011;46331;49.252;8.904;2023-05-18T03:18:17;10.55;;;1.40;;
60488;SDS011;46331;49.252;8.904;2023-05-18T03:18:58;7.60;;;1.77;;
60488;SDS011;46331;49.252;8.904;2023-05-18T03:19:45;6.40;;;1.40;;
60488;SDS011;46331;49.252;8.904;2023-05-18T03:20:26;9.13;;;1.50;;
60488;SDS011;46331;49.252;8.904;2023-05-18T03:21:08;6.40;;;1.52;;
60488;SDS011;46331;49.252;8.904;2023-05-18T03:21:52;8.00;;;1.27;;
60488;SDS011;46331;49.252;8.904;2023-05-18T03:22:33;6.65;;;1.65;;
60488;SDS011;46331;49.252;8.904;2023-05-18T03:23:13;9.23;;;1.57;;
60488;SDS011;46331;49.252;8.904;2023-05-18T03:23:54;8.23;;;1.25;;
60488;SDS011;46331;49.252;8.904;2023-05-18T03:24:35;6.67;;;1.43;;
60488;SDS011;46331;49.252;8.904;2023-05-18T03:25:22;7.50;;;1.65;;
60488;SDS011;46331;49.252;8.904;2023-05-18T03:26:04;7.07;;;1.30;;
60488;SDS011;46331;49.252;8.904;2023-05-18T03:26:50;6.20;;;1.58;;
60488;SDS011;46331;49.252;8.904;2023-05-18T03:27:33;7.13;;;1.70;;
60488;SDS011;46331;49.252;8.904;2023-05-18T03:28:14;5.17;;;1.27;;
60488;SDS011;46331;49.252;8.904;2023-05-18T03:28:54;11.95;;;1.88;;
60488;SDS011;46331;49.252;8.904;2023-05-18T03:29:35;7.30;;;1.50;;
60488;SDS011;46331;49.252;8.904;2023-05-18T03:30:20;7.80;;;1.27;;
60488;SDS011;46331;49.252;8.904;2023-05-18T03:31:01;7.47;;;1.40;;
60488;SDS011;46331;49.252;8.904;2023-05-18T03:31:41;8.02;;;1.38;;
60488;SDS011;46331;49.252;8.904;2023-05-18T03:32:24;7.65;;;1.35;;
60488;SDS011;46331;49.252;8.904;2023-05-18T03:33:06;8.17;;;1.33;;
60488;SDS011;46331;49.252;8.904;2023-05-18T03:33:46;7.97;;;1.33;;
60488;SDS011;46331;49.252;8.904;2023-05-18T03:34:27;7.20;;;1.30;;
60488;SDS011;46331;49.252;8.904;2023-05-18T03:35:08;8.05;;;1.77;;
60488;SDS011;46331;49.252;8.904;2023-05-18T03:35:49;8.13;;;1.75;;
60488;SDS011;46331;49.252;8.904;2023-05-18T03:36:31;7.72;;;1.77;;
60488;SDS011;46331;49.252;8.904;2023-05-18T03:37:12;8.80;;;1.80;;
60488;SDS011;46331;49.252;8.904;2023-05-18T03:37:53;7.18;;;1.73;;
60488;SDS011;46331;49.252;8.904;2023-05-18T03:38:34;10.90;;;1.73;;
60488;SDS011;46331;49.252;8.904;2023-05-18T03:39:20;5.65;;;1.30;;
60488;SDS011;46331;49.252;8.904;2023-05-18T03:40:07;9.77;;;2.00;;
60488;SDS011;46331;49.252;8.904;2023-05-18T03:40:50;5.90;;;1.30;;
60488;SDS011;46331;49.252;8.904;2023-05-18T03:41:31;7.05;;;1.20;;
60488;SDS011;46331;49.252;8.904;2023-05-18T03:42:11;9.43;;;1.30;;
60488;SDS011;46331;49.252;8.904;2023-05-18T03:42:52;10.40;;;1.60;;
60488;SDS011;46331;49.252;8.904;2023-05-18T03:43:32;6.47;;;1.37;;
60488;SDS011;46331;49.252;8.904;2023-05-18T03:44:14;7.07;;;1.55;;
60488;SDS011;46331;49.252;8.904;2023-05-18T03:44:55;7.35;;;1.52;;
60488;SDS011;46331;49.252;8.904;2023-05-18T03:45:36;8.77;;;2.65;;
60488;SDS011;46331;49.252;8.904;2023-05-18T03:46:16;10.07;;;1.90;;
60488;SDS011;46331;49.252;8.904;2023-05-18T03:47:00;7.38;;;1.60;;
60488;SDS011;46331;49.252;8.904;2023-05-18T03:47:40;8.13;;;1.63;;
60488;SDS011;46331;49.252;8.904;2023-05-18T03:48:21;9.17;;;1.50;;
60488;SDS011;46331;49.252;8.904;2023-05-18T03:49:01;8.75;;;1.40;;
60488;SDS011;46331;49.252;8.904;2023-05-18T03:49:49;17.42;;;3.05;;
60488;SDS011;46331;49.252;8.904;2023-05-18T03:50:30;11.83;;;1.60;;
60488;SDS011;46331;49.252;8.904;2023-05-18T03:51:11;5.70;;;1.33;;
60488;SDS011;46331;49.252;8.904;2023-05-18T03:51:52;6.60;;;1.40;;
60488;SDS011;46331;49.252;8.904;2023-05-18T03:52:35;9.25;;;1.45;;
60488;SDS011;46331;49.252;8.904;2023-05-18T03:53:16;11.03;;;1.53;;
60488;SDS011;46331;49.252;8.904;2023-05-18T03:54:00;8.40;;;1.48;;
60488;SDS011;46331;49.252;8.904;2023-05-18T03:54:41;6.22;;;1.40;;
60488;SDS011;46331;49.252;8.904;2023-05-18T03:55:23;10.10;;;1.83;;
60488;SDS011;46331;49.252;8.904;2023-05-18T03:56:03;9.57;;;1.67;;
60488;SDS011;46331;49.252;8.904;2023-05-18T03:56:45;6.37;;;1.43;;
60488;SDS011;46331;49.252;8.904;2023-05-18T03:57:26;6.93;;;1.90;;
60488;SDS011;46331;49.252;8.904;2023-05-18T03:58:08;7.72;;;1.45;;
60488;SDS011;46331;49.252;8.904;2023-05-18T03:58:49;6.20;;;1.20;;
60488;SDS011;46331;49.252;8.904;2023-05-18T03:59:30;8.82;;;1.25;;
60488;SDS011;46331;49.252;8.904;2023-05-18T04:00:11;6.50;;;1.20;;
60488;SDS011;46331;49.252;8.904;2023-05-18T04:00:59;7.63;;;1.60;;
60488;SDS011;46331;49.252;8.904;2023-05-18T04:01:40;7.30;;;1.30;;
60488;SDS011;46331;49.252;8.904;2023-05-18T04:02:21;7.35;;;1.52;;
60488;SDS011;46331;49.252;8.904;2023-05-18T04:03:02;11.37;;;1.97;;
60488;SDS011;46331;49.252;8.904;2023-05-18T04:03:42;8.18;;;1.65;;
60488;SDS011;46331;49.252;8.904;2023-05-18T04:04:24;7.38;;;1.63;;
60488;SDS011;46331;49.252;8.904;2023-05-18T04:05:06;7.07;;;1.60;;
60488;SDS011;46331;49.252;8.904;2023-05-18T04:05:47;7.65;;;1.88;;
60488;SDS011;46331;49.252;8.904;2023-05-18T04:06:30;6.85;;;1.55;;
60488;SDS011;46331;49.252;8.904;2023-05-18T04:07:10;5.72;;;1.40;;
60488;SDS011;46331;49.252;8.904;2023-05-18T04:07:51;8.10;;;1.40;;
60488;SDS011;46331;49.252;8.904;2023-05-18T04:08:32;7.00;;;1.40;;
60488;SDS011;46331;49.252;8.904;2023-05-18T04:09:13;9.32;;;1.40;;
60488;SDS011;46331;49.252;8.904;2023-05-18T04:09:56;10.57;;;2.30;;
60488;SDS011;46331;49.252;8.904;2023-05-18T04:10:37;8.63;;;1.77;;
60488;SDS011;46331;49.252;8.904;2023-05-18T04:11:17;6.35;;;1.27;;
60488;SDS011;46331;49.252;8.904;2023-05-18T04:11:58;5.97;;;1.50;;
60488;SDS011;46331;49.252;8.904;2023-05-18T04:12:39;8.88;;;1.40;;
60488;SDS011;46331;49.252;8.904;2023-05-18T04:13:19;6.20;;;1.13;;
60488;SDS011;46331;49.252;8.904;2023-05-18T04:14:00;7.63;;;1.40;;
60488;SDS011;46331;49.252;8.904;2023-05-18T04:14:41;7.00;;;1.50;;
60488;SDS011;46331;49.252;8.904;2023-05-18T04:15:21;8.73;;;1.70;;
60488;SDS011;46331;49.252;8.904;2023-05-18T04:16:02;5.85;;;1.50;;
60488;SDS011;46331;49.252;8.904;2023-05-18T04:16:43;9.50;;;1.63;;
60488;SDS011;46331;49.252;8.904;2023-05-18T04:17:23;9.07;;;1.58;;
60488;SDS011;46331;49.252;8.904;2023-05-18T04:18:05;8.30;;;1.50;;
60488;SDS011;46331;49.252;8.904;2023-05-18T04:18:47;6.40;;;1.55;;
60488;SDS011;46331;49.252;8.904;2023-05-18T04:19:27;6.13;;;1.40;;
60488;SDS011;46331;49.252;8.904;2023-05-18T04:20:08;7.13;;;1.63;;
60488;SDS011;46331;49.252;8.904;2023-05-18T04:20:55;8.80;;;1.90;;
60488;SDS011;46331;49.252;8.904;2023-05-18T04:21:35;6.45;;;1.67;;
60488;SDS011;46331;49.252;8.904;2023-05-18T04:22:16;5.97;;;1.27;;
60488;SDS011;46331;49.252;8.904;2023-05-18T04:22:58;7.10;;;1.30;;
60488;SDS011;46331;49.252;8.904;2023-05-18T04:23:39;6.72;;;1.63;;
60488;SDS011;46331;49.252;8.904;2023-05-18T04:24:20;8.63;;;1.45;;
60488;SDS011;46331;49.252;8.904;2023-05-18T04:25:01;9.02;;;1.75;;